createdAt,value
2019-03-12T00:00:30.385Z,3.87
2019-03-12T00:02:58.579Z,4.63
2019-03-12T00:05:26.907Z,4.33
2019-03-12T00:07:55.037Z,4.47
2019-03-12T00:10:23.165Z,5.55
2019-03-12T00:12:51.294Z,6.40
2019-03-12T00:15:19.423Z,3.87
2019-03-12T00:17:47.544Z,3.90
2019-03-12T00:20:15.697Z,4.73
2019-03-12T00:22:43.829Z,5.10
2019-03-12T00:25:11.952Z,4.15
2019-03-12T00:27:40.118Z,4.97
2019-03-12T00:30:09.437Z,5.45
2019-03-12T00:32:37.617Z,4.93
2019-03-12T00:35:06.334Z,5.75
2019-03-12T00:37:34.617Z,5.53
2019-03-12T00:40:02.949Z,5.83
2019-03-12T00:42:31.201Z,5.93
2019-03-12T00:44:59.518Z,6.97
2019-03-12T00:47:27.624Z,5.40
2019-03-12T00:49:55.766Z,6.07
2019-03-12T00:52:23.877Z,6.37
2019-03-12T00:54:52.033Z,6.10
2019-03-12T00:57:20.433Z,6.20
2019-03-12T00:59:48.759Z,6.57
2019-03-12T01:02:16.878Z,6.93
2019-03-12T01:04:45.042Z,6.70
2019-03-12T01:07:13.146Z,6.97
2019-03-12T01:09:41.267Z,6.67
2019-03-12T01:12:09.386Z,7.50
2019-03-12T01:14:37.538Z,8.35
2019-03-12T01:17:05.658Z,7.47
2019-03-12T01:19:34.007Z,6.63
2019-03-12T01:22:02.210Z,7.50
2019-03-12T01:24:30.617Z,7.67
2019-03-12T01:26:58.801Z,7.47
2019-03-12T01:29:27.010Z,6.97
2019-03-12T01:31:55.201Z,7.10
2019-03-12T01:34:23.310Z,5.10
2019-03-12T01:36:51.974Z,5.87
2019-03-12T01:39:20.192Z,5.83
2019-03-12T01:41:48.358Z,5.63
2019-03-12T01:44:16.519Z,6.63
2019-03-12T01:46:44.690Z,7.30
2019-03-12T01:49:12.899Z,5.45
2019-03-12T01:51:41.235Z,5.60
2019-03-12T01:54:09.363Z,6.30
2019-03-12T01:56:37.497Z,6.60
2019-03-12T01:59:05.847Z,6.23
2019-03-12T02:01:34.036Z,6.83
2019-03-12T02:04:02.160Z,6.37
2019-03-12T02:06:30.384Z,6.30
2019-03-12T02:08:58.804Z,7.03
2019-03-12T02:11:26.950Z,6.10
2019-03-12T02:13:55.091Z,6.40
2019-03-12T02:16:23.215Z,6.67
2019-03-12T02:18:51.412Z,7.73
2019-03-12T02:21:19.659Z,6.60
2019-03-12T02:23:47.797Z,7.22
2019-03-12T02:26:15.912Z,7.23
2019-03-12T02:28:44.049Z,7.33
2019-03-12T02:31:12.196Z,8.03
2019-03-12T02:33:40.722Z,7.45
2019-03-12T02:36:08.839Z,8.20
2019-03-12T02:38:36.969Z,8.87
2019-03-12T02:41:05.167Z,8.50
2019-03-12T02:43:33.406Z,8.73
2019-03-12T02:46:01.583Z,8.15
2019-03-12T02:48:29.807Z,7.57
2019-03-12T02:50:57.954Z,8.15
2019-03-12T02:53:26.124Z,7.83
2019-03-12T02:55:54.240Z,8.23
2019-03-12T02:58:22.562Z,8.63
2019-03-12T03:00:50.680Z,8.47
2019-03-12T03:03:18.830Z,8.33
2019-03-12T03:08:37.700Z,8.40
2019-03-12T03:11:05.845Z,7.00
2019-03-12T03:13:34.083Z,8.33
2019-03-12T03:16:02.305Z,6.73
2019-03-12T03:18:30.499Z,6.72
2019-03-12T03:20:58.754Z,6.23
2019-03-12T03:23:26.881Z,6.53
2019-03-12T03:25:55.033Z,5.85
2019-03-12T03:28:23.146Z,6.80
2019-03-12T03:30:51.429Z,5.75
2019-03-12T03:33:19.577Z,5.73
2019-03-12T03:35:47.704Z,5.85
2019-03-12T03:38:15.971Z,6.20
2019-03-12T03:40:44.096Z,4.75
2019-03-12T03:43:12.229Z,5.00
2019-03-12T03:45:40.799Z,6.27
2019-03-12T03:48:08.914Z,6.00
2019-03-12T03:50:37.148Z,6.33
2019-03-12T03:53:05.327Z,5.00
2019-03-12T03:55:33.522Z,6.00
2019-03-12T03:58:01.822Z,6.40
2019-03-12T04:00:30.161Z,6.33
2019-03-12T04:02:58.367Z,5.30
2019-03-12T04:05:26.496Z,5.67
2019-03-12T04:07:54.736Z,6.60
2019-03-12T04:10:23.003Z,5.63
2019-03-12T04:12:51.147Z,5.23
2019-03-12T04:15:19.479Z,5.00
2019-03-12T04:17:47.726Z,5.13
2019-03-12T04:20:16.394Z,5.50
2019-03-12T04:22:44.708Z,5.20
2019-03-12T04:25:12.902Z,5.63
2019-03-12T04:27:41.090Z,5.35
2019-03-12T04:30:10.962Z,6.17
2019-03-12T04:32:39.085Z,5.60
2019-03-12T04:35:08.675Z,4.93
2019-03-12T04:37:36.810Z,5.13
2019-03-12T04:40:08.963Z,5.07
2019-03-12T04:42:37.104Z,5.40
2019-03-12T04:45:06.778Z,5.07
2019-03-12T04:47:34.902Z,4.50
2019-03-12T04:50:03.801Z,5.35
2019-03-12T04:52:32.134Z,5.33
2019-03-12T04:55:01.053Z,5.40
2019-03-12T04:57:29.379Z,5.40
2019-03-12T04:59:57.590Z,4.57
2019-03-12T05:02:25.768Z,5.50
2019-03-12T05:04:53.924Z,4.60
2019-03-12T05:07:22.149Z,5.30
2019-03-12T05:09:50.300Z,5.00
2019-03-12T05:12:18.474Z,4.95
2019-03-12T05:14:46.606Z,4.90
2019-03-12T05:17:14.744Z,4.43
2019-03-12T05:19:42.936Z,4.67
2019-03-12T05:22:11.800Z,4.90
2019-03-12T05:24:39.905Z,4.55
2019-03-12T05:27:08.057Z,4.90
2019-03-12T05:29:36.171Z,4.33
2019-03-12T05:32:04.380Z,4.47
2019-03-12T05:34:32.486Z,4.57
2019-03-12T05:37:00.611Z,4.85
2019-03-12T05:39:28.740Z,4.63
2019-03-12T05:41:56.935Z,4.30
2019-03-12T05:44:25.068Z,4.50
2019-03-12T05:46:53.208Z,4.73
2019-03-12T05:49:21.434Z,3.80
2019-03-12T05:51:49.684Z,4.70
2019-03-12T05:54:17.894Z,3.85
2019-03-12T05:56:46.750Z,4.70
2019-03-12T05:59:14.861Z,4.00
2019-03-12T06:01:46.597Z,3.77
2019-03-12T06:04:13.298Z,4.43
2019-03-12T06:06:41.628Z,3.87
2019-03-12T06:09:09.854Z,3.90
2019-03-12T06:11:38.011Z,4.17
2019-03-12T06:14:06.222Z,4.75
2019-03-12T06:16:34.362Z,4.60
2019-03-12T06:19:03.254Z,4.00
2019-03-12T06:21:31.460Z,4.87
2019-03-12T06:23:59.600Z,4.30
2019-03-12T06:26:27.843Z,4.42
2019-03-12T06:28:55.975Z,3.60
2019-03-12T06:31:25.835Z,4.43
2019-03-12T06:34:04.887Z,4.00
2019-03-12T06:36:51.432Z,4.35
2019-03-12T06:39:21.240Z,4.07
2019-03-12T06:41:54.034Z,3.93
2019-03-12T06:44:24.079Z,4.43
2019-03-12T06:47:12.329Z,5.30
2019-03-12T06:49:44.966Z,4.08
2019-03-12T06:52:33.106Z,3.70
2019-03-12T06:55:08.990Z,3.67
2019-03-12T06:57:49.268Z,3.80
2019-03-12T07:00:19.103Z,4.20
2019-03-12T07:02:55.091Z,5.20
2019-03-12T07:05:41.590Z,4.33
2019-03-12T07:08:11.406Z,5.03
2019-03-12T07:10:41.239Z,4.23
2019-03-12T07:13:13.521Z,4.13
2019-03-12T07:15:49.122Z,5.10
2019-03-12T07:18:35.416Z,5.23
2019-03-12T07:21:14.019Z,5.05
2019-03-12T07:23:43.842Z,4.23
2019-03-12T07:26:13.713Z,5.07
2019-03-12T07:28:58.976Z,4.80
2019-03-12T07:31:37.695Z,5.07
2019-03-12T07:34:08.258Z,5.60
2019-03-12T07:36:44.088Z,5.80
2019-03-12T07:39:19.574Z,5.57
2019-03-12T07:41:55.423Z,5.83
2019-03-12T07:44:37.253Z,5.33
2019-03-12T07:47:09.815Z,5.20
2019-03-12T07:49:45.374Z,5.50
2019-03-12T07:52:24.390Z,5.03
2019-03-12T07:55:09.267Z,5.43
2019-03-12T07:57:39.067Z,5.87
2019-03-12T08:00:13.430Z,4.60
2019-03-12T08:02:58.709Z,5.13
2019-03-12T08:05:44.495Z,4.33
2019-03-12T08:08:20.236Z,4.33
2019-03-12T08:10:50.044Z,5.08
2019-03-12T08:16:13.430Z,4.93
2019-03-12T08:18:46.186Z,4.43
2019-03-12T08:21:24.739Z,3.67
2019-03-12T08:23:54.499Z,4.37
2019-03-12T08:26:27.086Z,4.23
2019-03-12T08:28:56.902Z,4.23
2019-03-12T08:31:29.263Z,4.37
2019-03-12T08:34:16.117Z,4.27
2019-03-12T08:36:48.637Z,4.47
2019-03-12T08:39:35.071Z,4.08
2019-03-12T08:42:05.160Z,3.47
2019-03-12T08:44:37.551Z,3.47
2019-03-12T08:47:08.977Z,3.23
2019-03-12T08:49:38.789Z,4.07
2019-03-12T08:52:14.382Z,5.70
2019-03-12T08:55:03.489Z,5.43
2019-03-12T08:57:37.511Z,3.30
2019-03-12T09:00:24.243Z,3.50
2019-03-12T09:03:06.185Z,3.63
2019-03-12T09:05:36.010Z,3.63
2019-03-12T09:08:05.838Z,3.00
2019-03-12T09:10:35.614Z,4.47
2019-03-12T09:13:14.523Z,3.30
2019-03-12T09:15:47.133Z,3.00
2019-03-12T09:18:31.949Z,3.30
2019-03-12T09:21:17.879Z,3.50
2019-03-12T09:24:04.218Z,2.73
2019-03-12T09:26:36.673Z,5.47
2019-03-12T09:29:09.244Z,3.33
2019-03-12T09:31:39.003Z,3.03
2019-03-12T09:34:08.795Z,2.37
2019-03-12T09:36:53.526Z,2.30
2019-03-12T09:39:25.990Z,4.83
2019-03-12T09:42:13.418Z,2.77
2019-03-12T09:44:46.051Z,2.27
2019-03-12T09:47:27.853Z,2.63
2019-03-12T09:49:57.631Z,2.67
2019-03-12T09:52:45.777Z,2.47
2019-03-12T09:55:34.341Z,1.93
2019-03-12T09:58:04.118Z,2.40
2019-03-12T10:00:42.730Z,2.90
2019-03-12T10:03:15.386Z,2.77
2019-03-12T10:05:50.994Z,2.83
2019-03-12T10:08:32.538Z,2.93
2019-03-12T10:13:49.784Z,2.53
2019-03-12T10:16:34.777Z,3.03
2019-03-12T10:19:16.675Z,2.80
2019-03-12T10:21:49.454Z,2.47
2019-03-12T10:24:35.884Z,3.00
2019-03-12T10:27:11.504Z,2.22
2019-03-12T10:29:41.374Z,2.43
2019-03-12T10:32:27.478Z,2.00
2019-03-12T10:34:57.267Z,2.90
2019-03-12T10:37:43.715Z,3.10
2019-03-12T10:40:22.551Z,2.47
2019-03-12T10:42:57.863Z,2.40
2019-03-12T10:45:30.209Z,3.20
2019-03-12T10:48:00.359Z,2.20
2019-03-12T10:50:28.752Z,2.97
2019-03-12T10:52:56.861Z,2.47
2019-03-12T10:55:25.047Z,2.20
2019-03-12T10:57:53.284Z,2.07
2019-03-12T11:00:21.670Z,2.00
2019-03-12T11:02:49.782Z,2.50
2019-03-12T11:05:18.266Z,3.13
2019-03-12T11:07:46.480Z,2.17
2019-03-12T11:10:16.259Z,2.37
2019-03-12T11:12:44.434Z,1.80
2019-03-12T11:15:13.021Z,2.60
2019-03-12T11:17:49.704Z,2.30
2019-03-12T11:20:18.429Z,2.33
2019-03-12T11:22:46.555Z,2.60
2019-03-12T11:25:26.671Z,2.97
2019-03-12T11:27:44.650Z,3.05
2019-03-12T11:30:16.380Z,2.30
2019-03-12T11:32:44.577Z,5.05
2019-03-12T11:35:12.762Z,2.57
2019-03-12T11:37:41.680Z,2.90
2019-03-12T11:40:11.377Z,1.87
2019-03-12T11:42:39.621Z,2.30
2019-03-12T11:45:15.383Z,2.30
2019-03-12T11:47:39.159Z,2.27
2019-03-12T11:50:15.387Z,2.65
2019-03-12T11:52:52.464Z,2.77
2019-03-12T11:55:14.399Z,3.47
2019-03-12T11:57:42.642Z,2.17
2019-03-12T12:00:12.407Z,3.05
2019-03-12T12:02:40.585Z,2.27
2019-03-12T12:05:08.847Z,3.00
2019-03-12T12:07:37.035Z,2.30
2019-03-12T12:10:06.743Z,2.33
2019-03-12T12:12:34.918Z,8.83
2019-03-12T12:15:04.184Z,2.63
2019-03-12T12:17:32.394Z,2.77
2019-03-12T12:20:00.623Z,3.00
2019-03-12T12:22:28.838Z,2.53
2019-03-12T12:24:57.049Z,2.53
2019-03-12T12:27:25.972Z,3.37
2019-03-12T12:29:54.140Z,1.77
2019-03-12T12:32:22.271Z,2.93
2019-03-12T12:34:50.608Z,2.10
2019-03-12T12:37:18.724Z,2.00
2019-03-12T12:39:46.948Z,2.12
2019-03-12T12:42:15.063Z,2.27
2019-03-12T12:44:43.749Z,2.08
2019-03-12T12:47:11.850Z,2.27
2019-03-12T12:49:39.983Z,2.13
2019-03-12T12:52:08.104Z,1.77
2019-03-12T12:54:36.225Z,1.73
2019-03-12T12:57:04.460Z,2.00
2019-03-12T12:59:32.679Z,1.60
2019-03-12T13:02:00.882Z,1.90
2019-03-12T13:04:29.153Z,1.67
2019-03-12T13:06:57.957Z,1.60
2019-03-12T13:09:26.102Z,1.53
2019-03-12T13:11:54.292Z,1.93
2019-03-12T13:14:22.441Z,2.00
2019-03-12T13:16:50.563Z,2.42
2019-03-12T13:19:18.766Z,2.00
2019-03-12T13:21:47.053Z,1.60
2019-03-12T13:24:15.194Z,2.77
2019-03-12T13:26:43.329Z,1.95
2019-03-12T13:29:11.451Z,1.73
2019-03-12T13:31:39.634Z,1.70
2019-03-12T13:34:07.774Z,1.90
2019-03-12T13:36:35.898Z,1.60
2019-03-12T13:39:05.916Z,2.20
2019-03-12T13:41:34.296Z,2.43
2019-03-12T13:44:02.593Z,1.63
2019-03-12T13:46:30.757Z,1.70
2019-03-12T13:48:59.009Z,2.10
2019-03-12T13:51:27.376Z,1.50
2019-03-12T13:53:55.569Z,2.03
2019-03-12T13:56:23.791Z,1.87
2019-03-12T13:58:52.727Z,1.80
2019-03-12T14:01:20.969Z,1.70
2019-03-12T14:03:49.104Z,1.80
2019-03-12T14:06:17.267Z,3.00
2019-03-12T14:08:45.391Z,2.10
2019-03-12T14:11:13.541Z,1.82
2019-03-12T14:13:41.749Z,2.03
2019-03-12T14:16:09.858Z,1.72
2019-03-12T14:18:38.011Z,1.77
2019-03-12T14:21:07.599Z,1.83
2019-03-12T14:23:37.108Z,1.70
2019-03-12T14:26:05.437Z,2.40
2019-03-12T14:28:33.674Z,1.90
2019-03-12T14:31:01.856Z,2.83
2019-03-12T14:33:30.030Z,1.70
2019-03-12T14:35:58.227Z,2.03
2019-03-12T14:38:26.366Z,2.00
2019-03-12T14:40:54.603Z,1.93
2019-03-12T14:43:22.825Z,2.10
2019-03-12T14:45:51.664Z,1.80
2019-03-12T14:48:38.802Z,1.70
2019-03-12T14:51:08.704Z,2.43
2019-03-12T14:53:37.973Z,2.20
2019-03-12T14:56:06.095Z,1.57
2019-03-12T14:58:34.325Z,1.77
2019-03-12T15:01:02.505Z,1.90
2019-03-12T15:03:30.725Z,1.97
2019-03-12T15:05:58.912Z,1.67
2019-03-12T15:08:27.189Z,1.50
2019-03-12T15:10:55.356Z,1.40
2019-03-12T15:13:23.602Z,1.70
2019-03-12T15:15:51.771Z,1.70
2019-03-12T15:18:19.903Z,1.70
2019-03-12T15:20:49.178Z,2.20
2019-03-12T15:23:17.356Z,1.33
2019-03-12T15:25:45.473Z,1.70
2019-03-12T15:28:13.627Z,1.60
2019-03-12T15:30:41.834Z,2.07
2019-03-12T15:33:10.001Z,2.40
2019-03-12T15:35:38.188Z,2.02
2019-03-12T15:38:06.394Z,1.77
2019-03-12T15:40:35.093Z,2.10
2019-03-12T15:43:03.248Z,1.80
2019-03-12T15:45:31.461Z,1.80
2019-03-12T15:47:59.625Z,1.83
2019-03-12T15:50:27.762Z,2.00
2019-03-12T15:52:55.893Z,1.60
2019-03-12T15:55:24.059Z,1.50
2019-03-12T15:57:53.225Z,1.80
2019-03-12T16:00:21.478Z,1.23
2019-03-12T16:02:49.709Z,1.63
2019-03-12T16:05:17.934Z,1.98
2019-03-12T16:07:46.082Z,1.50
2019-03-12T16:10:15.734Z,1.60
2019-03-12T16:12:43.868Z,1.70
2019-03-12T16:15:13.505Z,1.50
2019-03-12T16:17:41.614Z,2.10
2019-03-12T16:20:16.760Z,1.43
2019-03-12T16:22:44.973Z,1.50
2019-03-12T16:25:13.173Z,1.75
2019-03-12T16:27:41.378Z,1.37
2019-03-12T16:30:10.973Z,2.08
2019-03-12T16:32:39.114Z,1.70
2019-03-12T16:35:08.027Z,1.90
2019-03-12T16:37:36.225Z,1.80
2019-03-12T16:40:20.024Z,1.50
2019-03-12T16:42:48.299Z,1.73
2019-03-12T16:45:17.002Z,1.60
2019-03-12T16:47:45.132Z,1.20
2019-03-12T16:50:14.088Z,1.57
2019-03-12T16:52:42.520Z,3.13
2019-03-12T16:55:22.129Z,1.63
2019-03-12T16:57:51.528Z,1.10
2019-03-12T17:00:20.423Z,1.90
2019-03-12T17:02:48.688Z,1.90
2019-03-12T17:05:18.357Z,2.27
2019-03-12T17:07:46.525Z,1.70
2019-03-12T17:10:16.213Z,1.80
2019-03-12T17:12:44.531Z,1.20
2019-03-12T17:15:13.863Z,1.87
2019-03-12T17:17:50.235Z,1.60
2019-03-12T17:20:18.725Z,1.60
2019-03-12T17:22:46.828Z,1.60
2019-03-12T17:25:15.012Z,1.40
2019-03-12T17:27:43.256Z,1.47
2019-03-12T17:30:17.932Z,1.57
2019-03-12T17:32:49.105Z,2.10
2019-03-12T17:35:21.410Z,1.30
2019-03-12T17:37:49.508Z,2.57
2019-03-12T17:40:19.305Z,1.77
2019-03-12T17:42:49.550Z,1.50
2019-03-12T17:45:17.557Z,2.15
2019-03-12T17:47:47.221Z,1.40
2019-03-12T17:50:18.203Z,2.00
2019-03-12T17:52:46.319Z,1.67
2019-03-12T17:55:16.504Z,1.90
2019-03-12T17:57:44.687Z,1.47
2019-03-12T18:00:18.138Z,1.83
2019-03-12T18:02:47.846Z,1.97
2019-03-12T18:05:17.380Z,1.50
2019-03-12T18:07:45.719Z,1.62
2019-03-12T18:10:17.127Z,1.50
2019-03-12T18:12:45.297Z,1.87
2019-03-12T18:15:19.255Z,2.97
2019-03-12T18:17:48.679Z,1.72
2019-03-12T18:20:18.327Z,2.03
2019-03-12T18:22:47.230Z,1.53
2019-03-12T18:25:19.133Z,1.83
2019-03-12T18:27:47.249Z,2.00
2019-03-12T18:30:17.615Z,1.90
2019-03-12T18:32:51.184Z,1.87
2019-03-12T18:35:19.320Z,1.70
2019-03-12T18:37:47.476Z,2.27
2019-03-12T18:40:17.116Z,1.52
2019-03-12T18:42:47.975Z,1.67
2019-03-12T18:45:19.864Z,1.98
2019-03-12T18:47:47.997Z,1.80
2019-03-12T18:50:17.230Z,1.80
2019-03-12T18:52:46.983Z,1.70
2019-03-12T18:55:31.679Z,1.98
2019-03-12T18:58:03.024Z,1.70
2019-03-12T19:00:31.682Z,1.90
2019-03-12T19:03:02.699Z,2.10
2019-03-12T19:05:30.816Z,2.40
2019-03-12T19:08:00.499Z,1.73
2019-03-12T19:10:28.986Z,1.93
2019-03-12T19:16:07.336Z,2.13
2019-03-12T19:18:44.125Z,1.80
2019-03-12T19:21:12.687Z,2.23
2019-03-12T19:23:41.553Z,1.87
2019-03-12T19:26:09.770Z,1.70
2019-03-12T19:28:46.676Z,2.33
2019-03-12T19:31:13.961Z,1.53
2019-03-12T19:33:42.176Z,1.80
2019-03-12T19:36:10.391Z,1.92
2019-03-12T19:38:38.674Z,2.13
2019-03-12T19:51:53.898Z,2.37
2019-03-12T19:54:22.240Z,1.90
2019-03-12T19:56:50.492Z,2.37
2019-03-12T19:59:18.724Z,2.10
2019-03-12T20:01:48.400Z,1.97
2019-03-12T20:04:16.658Z,1.97
2019-03-12T20:06:44.972Z,1.73
2019-03-12T20:09:14.812Z,2.08
2019-03-12T20:11:44.461Z,1.87
2019-03-12T20:14:17.761Z,2.40
2019-03-12T20:17:09.092Z,1.93
2019-03-12T20:19:53.795Z,1.80
2019-03-12T20:22:33.875Z,2.27
2019-03-12T20:25:06.517Z,1.90
2019-03-12T20:27:45.250Z,1.70
2019-03-12T20:30:18.117Z,1.60
2019-03-12T20:32:48.411Z,1.90
2019-03-12T20:35:34.984Z,1.77
2019-03-12T20:38:23.020Z,1.90
2019-03-12T20:41:09.600Z,2.13
2019-03-12T20:43:43.611Z,2.90
2019-03-12T20:46:13.776Z,3.02
2019-03-12T20:49:10.820Z,3.20
2019-03-12T20:51:49.837Z,2.70
2019-03-12T20:54:28.784Z,2.57
2019-03-12T20:56:59.957Z,2.50
2019-03-12T20:59:41.474Z,2.05
2019-03-12T21:02:11.235Z,2.00
2019-03-12T21:04:40.999Z,2.93
2019-03-12T21:07:28.678Z,1.97
2019-03-12T21:10:10.229Z,1.83
2019-03-12T21:12:39.918Z,0.90
2019-03-12T21:15:26.452Z,0.80
2019-03-12T21:18:08.444Z,1.00
2019-03-12T21:20:49.212Z,1.60
2019-03-12T21:23:21.985Z,1.77
2019-03-12T21:26:08.477Z,1.87
2019-03-12T21:28:40.155Z,2.90
2019-03-12T21:31:08.360Z,3.30
2019-03-12T21:33:36.553Z,2.20
2019-03-12T21:36:08.004Z,2.87
2019-03-12T21:38:36.297Z,4.13
2019-03-12T21:41:04.531Z,4.90
2019-03-12T21:43:32.724Z,3.40
2019-03-12T21:46:01.663Z,3.43
2019-03-12T21:48:29.877Z,3.50
2019-03-12T21:50:58.418Z,3.67
2019-03-12T21:53:26.732Z,3.70
2019-03-12T21:55:54.997Z,3.30
2019-03-12T21:58:23.193Z,4.00
2019-03-12T22:00:51.446Z,3.20
2019-03-12T22:03:19.595Z,3.47
2019-03-12T22:05:47.730Z,3.53
2019-03-12T22:08:15.851Z,3.50
2019-03-12T22:10:44.147Z,3.90
2019-03-12T22:13:12.259Z,3.23
2019-03-12T22:15:40.459Z,3.42
2019-03-12T22:18:08.628Z,3.07
2019-03-12T22:20:37.219Z,3.33
2019-03-12T22:23:10.146Z,3.00
2019-03-12T22:25:38.360Z,3.13
2019-03-12T22:28:06.986Z,2.30
2019-03-12T22:30:42.561Z,3.50
2019-03-12T22:33:13.951Z,3.20
2019-03-12T22:35:42.077Z,3.70
2019-03-12T22:38:10.191Z,3.97
2019-03-12T22:40:38.423Z,3.57
2019-03-12T22:43:07.293Z,3.90
2019-03-12T22:45:35.402Z,3.23
2019-03-12T22:48:03.905Z,4.83
2019-03-12T22:50:32.011Z,4.10
2019-03-12T22:53:00.300Z,3.40
2019-03-12T22:55:28.432Z,3.70
2019-03-12T22:57:56.532Z,4.23
2019-03-12T23:00:26.199Z,4.23
2019-03-12T23:02:54.416Z,4.43
2019-03-12T23:05:22.509Z,4.87
2019-03-12T23:07:50.737Z,8.50
2019-03-12T23:10:19.513Z,8.63
2019-03-12T23:12:47.652Z,12.97
2019-03-12T23:15:16.895Z,10.73
2019-03-12T23:17:45.068Z,9.40
2019-03-12T23:20:14.582Z,12.65
2019-03-12T23:22:42.784Z,13.22
2019-03-12T23:25:10.948Z,14.93
2019-03-12T23:27:39.094Z,13.80
2019-03-12T23:30:16.976Z,10.83
2019-03-12T23:32:45.161Z,10.67
2019-03-12T23:35:13.352Z,10.67
2019-03-12T23:37:41.665Z,9.00
2019-03-12T23:40:11.348Z,10.07
2019-03-12T23:42:39.467Z,11.93
2019-03-12T23:45:09.120Z,10.30
2019-03-12T23:47:37.333Z,10.57
2019-03-12T23:50:07.508Z,11.87
2019-03-12T23:52:37.179Z,12.10
2019-03-12T23:55:07.385Z,12.70
2019-03-12T23:57:35.563Z,11.13
